Cosco Belgium — VRLT8 — position and weather

sailwx.info

Track history (hours):
 
Tides and Currents Weather Stations Pressure Air Temp Water Temp Dewpoint Dewpoint Depression Visibility Wind Speed Wind Dir Waves Ship Positions

Cosco Belgium

Last reported at 2018-Feb-23 22:00 UTC. Time now 2018-Feb-24 06:49 UTC.
Position N 54°42' W 157°00'.

Length 366 m; draft 13.9 m.

Type: Ship (hazmat cat A). MMSI: 477427500.

Wind from 200 at 35 knots

Barometer 1023.0 mb
Air temperature 6.0 ° C
Visibility: greater than 5.4 NM
Water temperature 5.0 ° C

Date/timePositionNaut miles runAvg speedWind from/ knotsBaromVisibWave heightAir tempDewpointWater temp
2018-Feb-23 22:00N 54°42' W 157°00'44819.5 200 / 351023.0 5.4 6.0 5.0
2018-Feb-22 23:00N 54°36' W 169°54'   110 / 181034.0 5.4 5.0 4.0
2018-Feb-18 11:33N 41°38' E 141°50'219.8
2018-Feb-18 11:27N 41°38' E 141°48'1420.2
2018-Feb-18 10:46N 41°38' E 141°29'719.9
2018-Feb-18 10:25N 41°38' E 141°20'819.3
2018-Feb-18 10:00N 41°38' E 141°09'1019.6
2018-Feb-18 09:30N 41°37' E 140°56'1019.8
2018-Feb-18 09:00N 41°33' E 140°44'1121.1
2018-Feb-18 08:31N 41°28' E 140°32'1020.0
2018-Feb-18 08:01N 41°22' E 140°21'62918.8
2018-Feb-16 22:35N 34°36' E 130°11'219.7
2018-Feb-16 22:29N 34°35' E 130°09'1019.8
2018-Feb-16 22:00N 34°28' E 130°01'1219.7
2018-Feb-16 21:23N 34°20' E 129°50'  
2018-Feb-14 16:38N 30°36' E 122°04'1 4.5
2018-Feb-14 16:28N 30°36' E 122°05'611.9
2018-Feb-14 16:00N 30°34' E 122°11'611.0
2018-Feb-14 15:28N 30°33' E 122°18'7 7.9
2018-Feb-14 14:33N 30°32' E 122°26'5 5.9
2018-Feb-14 13:40N 30°34' E 122°32'2 7.1
2018-Feb-14 13:26N 30°34' E 122°34'4 8.3
2018-Feb-14 13:00N 30°34' E 122°38'1011.4
2018-Feb-14 12:09N 30°36' E 122°49'4411.0
2018-Feb-14 08:06N 31°20' E 122°56'111.9
2018-Feb-14 08:00N 31°21' E 122°56'811.7
2018-Feb-14 07:19N 31°29' E 122°56'  
Track history (hours):
 
Tides and Currents Weather Stations Pressure Air Temp Water Temp Dewpoint Dewpoint Depression Visibility Wind Speed Wind Dir Waves Ship Positions

Cosco Belgium

Last reported at 2018-Feb-23 22:00 UTC. Time now 2018-Feb-24 06:49 UTC.
Position N 54°42' W 157°00'.

Length 366 m; draft 13.9 m.

Type: Ship (hazmat cat A). MMSI: 477427500.

Wind from 200 at 35 knots

Barometer 1023.0 mb
Air temperature 6.0 ° C
Visibility: greater than 5.4 NM
Water temperature 5.0 ° C

Date/timePositionNaut miles runAvg speedWind from/ knotsBaromVisibWave heightAir tempDewpointWater temp
2018-Feb-23 22:00N 54°42' W 157°00'44819.5 200 / 351023.0 5.4 6.0 5.0
2018-Feb-22 23:00N 54°36' W 169°54'   110 / 181034.0 5.4 5.0 4.0
2018-Feb-18 11:33N 41°38' E 141°50'219.8
2018-Feb-18 11:27N 41°38' E 141°48'1420.2
2018-Feb-18 10:46N 41°38' E 141°29'719.9
2018-Feb-18 10:25N 41°38' E 141°20'819.3
2018-Feb-18 10:00N 41°38' E 141°09'1019.6
2018-Feb-18 09:30N 41°37' E 140°56'1019.8
2018-Feb-18 09:00N 41°33' E 140°44'1121.1
2018-Feb-18 08:31N 41°28' E 140°32'1020.0
2018-Feb-18 08:01N 41°22' E 140°21'62918.8
2018-Feb-16 22:35N 34°36' E 130°11'219.7
2018-Feb-16 22:29N 34°35' E 130°09'1019.8
2018-Feb-16 22:00N 34°28' E 130°01'1219.7
2018-Feb-16 21:23N 34°20' E 129°50'  
2018-Feb-14 16:38N 30°36' E 122°04'1 4.5
2018-Feb-14 16:28N 30°36' E 122°05'611.9
2018-Feb-14 16:00N 30°34' E 122°11'611.0
2018-Feb-14 15:28N 30°33' E 122°18'7 7.9
2018-Feb-14 14:33N 30°32' E 122°26'5 5.9
2018-Feb-14 13:40N 30°34' E 122°32'2 7.1
2018-Feb-14 13:26N 30°34' E 122°34'4 8.3
2018-Feb-14 13:00N 30°34' E 122°38'1011.4
2018-Feb-14 12:09N 30°36' E 122°49'4411.0
2018-Feb-14 08:06N 31°20' E 122°56'111.9
2018-Feb-14 08:00N 31°21' E 122°56'811.7
2018-Feb-14 07:19N 31°29' E 122°56'  

Dump ship's entire track history